Time,TemperatureF,DewpointF,PressureIn,WindDirection,WindDirectionDegrees,WindSpeedMPH,WindSpeedGustMPH,Humidity,HourlyPrecipIn,Conditions,Clouds,dailyrainin,SoftwareType,DateUTC
2013-08-15 00:04:00,51.8,49.8,29.95,NNE,22,0.0,-999.0,93,-99.99,,,0.00,Acu-Link.com,2013-08-15 04:04:00,
2013-08-15 00:20:00,51.4,49.7,29.96,South,180,0.0,-999.0,94,-99.99,,,0.00,Acu-Link.com,2013-08-15 04:20:00,
2013-08-15 00:35:00,51.1,49.7,29.96,NNE,22,0.0,-999.0,95,-99.99,,,0.00,Acu-Link.com,2013-08-15 04:35:00,
2013-08-15 00:50:00,50.7,49.3,29.95,NNW,337,0.0,-999.0,95,-99.99,,,0.00,Acu-Link.com,2013-08-15 04:50:00,
2013-08-15 01:05:00,50.5,49.1,29.96,NNE,22,0.0,-999.0,95,-99.99,,,0.00,Acu-Link.com,2013-08-15 05:05:00,
2013-08-15 01:20:00,50.4,49.3,29.96,ESE,112,0.0,-999.0,96,-99.99,,,0.00,Acu-Link.com,2013-08-15 05:20:00,
2013-08-15 01:36:00,50.2,49.1,29.96,NNE,22,0.0,-999.0,96,-99.99,,,0.00,Acu-Link.com,2013-08-15 05:36:00,
2013-08-15 01:51:00,50.0,49.2,29.97,SSE,157,0.0,-999.0,97,-99.99,,,0.00,Acu-Link.com,2013-08-15 05:51:00,
2013-08-15 02:06:00,49.8,49.0,29.97,North,0,0.0,-999.0,97,-99.99,,,0.00,Acu-Link.com,2013-08-15 06:06:00,
2013-08-15 02:22:00,49.6,49.1,29.98,NE,45,0.0,-999.0,98,-99.99,,,0.00,Acu-Link.com,2013-08-15 06:22:00,
2013-08-15 02:37:00,49.1,48.6,29.97,NNW,337,0.0,-999.0,98,-99.99,,,0.00,Acu-Link.com,2013-08-15 06:37:00,
2013-08-15 02:52:00,48.7,47.9,29.98,NNE,22,0.0,-999.0,97,-99.99,,,0.00,Acu-Link.com,2013-08-15 06:52:00,
2013-08-15 03:08:00,48.4,47.6,29.98,NE,45,0.0,-999.0,97,-99.99,,,0.00,Acu-Link.com,2013-08-15 07:08:00,
2013-08-15 03:23:00,48.2,47.7,29.98,NNE,22,0.0,-999.0,98,-99.99,,,0.00,Acu-Link.com,2013-08-15 07:23:00,
2013-08-15 03:39:00,48.0,47.5,29.98,SSW,202,0.0,-999.0,98,-99.99,,,0.00,Acu-Link.com,2013-08-15 07:39:00,
2013-08-15 03:54:00,47.5,47.0,29.99,NNE,22,0.0,-999.0,98,-99.99,,,0.00,Acu-Link.com,2013-08-15 07:54:00,
2013-08-15 04:09:00,47.5,47.0,29.99,NNE,22,0.0,-999.0,98,-99.99,,,0.00,Acu-Link.com,2013-08-15 08:09:00,
2013-08-15 04:24:00,47.3,46.8,30.00,NNW,337,0.0,-999.0,98,-99.99,,,0.00,Acu-Link.com,2013-08-15 08:24:00,
2013-08-15 04:39:00,47.1,46.6,29.99,SSE,157,0.0,-999.0,98,-99.99,,,0.00,Acu-Link.com,2013-08-15 08:39:00,
2013-08-15 04:54:00,47.1,46.6,30.00,NNE,22,0.0,-999.0,98,-99.99,,,0.00,Acu-Link.com,2013-08-15 08:54:00,
2013-08-15 05:10:00,46.6,46.1,30.00,SW,225,0.0,-999.0,98,-99.99,,,0.00,Acu-Link.com,2013-08-15 09:10:00,
2013-08-15 05:25:00,46.6,46.1,30.01,SE,135,0.0,-999.0,98,-99.99,,,0.00,Acu-Link.com,2013-08-15 09:25:00,
2013-08-15 05:40:00,46.2,45.7,30.02,NNE,22,0.0,-999.0,98,-99.99,,,0.00,Acu-Link.com,2013-08-15 09:40:00,
2013-08-15 05:55:00,46.0,45.5,30.02,SW,225,0.0,-999.0,98,-99.99,,,0.00,Acu-Link.com,2013-08-15 09:55:00,
2013-08-15 06:11:00,45.9,45.4,30.03,NNW,337,0.0,-999.0,98,-99.99,,,0.00,Acu-Link.com,2013-08-15 10:11:00,
2013-08-15 06:26:00,46.2,45.7,30.03,SSE,157,0.0,-999.0,98,-99.99,,,0.00,Acu-Link.com,2013-08-15 10:26:00,
2013-08-15 06:41:00,46.9,46.4,30.04,ENE,67,0.0,-999.0,98,-99.99,,,0.00,Acu-Link.com,2013-08-15 10:41:00,
2013-08-15 06:56:00,47.5,47.0,30.04,SE,135,0.0,-999.0,98,-99.99,,,0.00,Acu-Link.com,2013-08-15 10:56:00,
2013-08-15 07:12:00,48.7,48.2,30.05,South,180,0.0,-999.0,98,-99.99,,,0.00,Acu-Link.com,2013-08-15 11:12:00,
2013-08-15 07:27:00,50.0,49.5,30.05,SSE,157,2.2,-999.0,98,-99.99,,,0.00,Acu-Link.com,2013-08-15 11:27:00,
2013-08-15 07:43:00,51.4,50.9,30.05,South,180,1.7,-999.0,98,-99.99,,,0.00,Acu-Link.com,2013-08-15 11:43:00,
2013-08-15 07:58:00,53.1,51.7,30.06,South,180,2.2,-999.0,95,-99.99,,,0.00,Acu-Link.com,2013-08-15 11:58:00,
2013-08-15 08:13:00,54.3,52.3,30.06,NNE,22,0.0,-999.0,93,-99.99,,,0.00,Acu-Link.com,2013-08-15 12:13:00,
2013-08-15 08:29:00,55.6,53.0,30.06,West,270,2.2,-999.0,91,-99.99,,,0.00,Acu-Link.com,2013-08-15 12:29:00,
2013-08-15 08:44:00,57.7,54.2,30.05,SW,225,1.1,-999.0,88,-99.99,,,0.00,Acu-Link.com,2013-08-15 12:44:00,
2013-08-15 08:59:00,58.6,53.5,30.05,SW,225,0.0,-999.0,83,-99.99,,,0.00,Acu-Link.com,2013-08-15 12:59:00,
2013-08-15 09:14:00,59.7,53.9,30.06,South,180,1.7,-999.0,81,-99.99,,,0.00,Acu-Link.com,2013-08-15 13:14:00,
2013-08-15 09:30:00,60.8,54.6,30.05,ESE,112,1.1,-999.0,80,-99.99,,,0.00,Acu-Link.com,2013-08-15 13:30:00,
2013-08-15 09:45:00,61.9,53.9,30.06,ESE,112,3.7,-999.0,75,-99.99,,,0.00,Acu-Link.com,2013-08-15 13:45:00,
2013-08-15 10:00:00,63.3,54.5,30.06,SSE,157,1.7,-999.0,73,-99.99,,,0.00,Acu-Link.com,2013-08-15 14:00:00,
2013-08-15 10:16:00,64.8,54.0,30.06,South,180,5.3,-999.0,68,-99.99,,,0.00,Acu-Link.com,2013-08-15 14:16:00,
2013-08-15 10:31:00,65.8,53.7,30.06,ESE,112,2.2,-999.0,65,-99.99,,,0.00,Acu-Link.com,2013-08-15 14:31:00,
2013-08-15 11:32:00,66.0,54.3,30.06,NNW,337,2.7,-999.0,66,-99.99,,,0.00,Acu-Link.com,2013-08-15 15:32:00,
2013-08-15 11:47:00,65.8,54.9,30.06,NW,315,0.0,-999.0,68,-99.99,,,0.00,Acu-Link.com,2013-08-15 15:47:00,
2013-08-15 12:03:00,66.2,54.1,30.05,WNW,292,2.7,-999.0,65,-99.99,,,0.00,Acu-Link.com,2013-08-15 16:03:00,
2013-08-15 12:33:00,68.2,54.2,30.05,NE,45,1.7,-999.0,61,-99.99,,,0.00,Acu-Link.com,2013-08-15 16:33:00,
2013-08-15 12:49:00,69.6,55.1,30.04,NNE,22,1.7,-999.0,60,-99.99,,,0.00,Acu-Link.com,2013-08-15 16:49:00,
2013-08-15 13:04:00,69.1,54.2,30.04,SSE,157,1.1,-999.0,59,-99.99,,,0.00,Acu-Link.com,2013-08-15 17:04:00,
2013-08-15 13:19:00,69.3,54.3,30.04,NE,45,3.2,-999.0,59,-99.99,,,0.00,Acu-Link.com,2013-08-15 17:19:00,
2013-08-15 13:35:00,70.0,55.0,30.04,ESE,112,1.1,-999.0,59,-99.99,,,0.00,Acu-Link.com,2013-08-15 17:35:00,
2013-08-15 14:05:00,71.2,54.2,30.03,NNW,337,2.7,-999.0,55,-99.99,,,0.00,Acu-Link.com,2013-08-15 18:05:00,
2013-08-15 14:20:00,69.6,53.7,30.04,ENE,67,1.7,-999.0,57,-99.99,,,0.00,Acu-Link.com,2013-08-15 18:20:00,
2013-08-15 14:36:00,72.9,55.8,30.03,West,270,1.7,-999.0,55,-99.99,,,0.00,Acu-Link.com,2013-08-15 18:36:00,
2013-08-15 14:51:00,69.6,54.6,30.03,ESE,112,2.2,-999.0,59,-99.99,,,0.00,Acu-Link.com,2013-08-15 18:51:00,
2013-08-15 15:06:00,70.7,53.2,30.03,WNW,292,3.2,-999.0,54,-99.99,,,0.00,Acu-Link.com,2013-08-15 19:06:00,
2013-08-15 15:22:00,71.8,54.2,30.03,West,270,2.7,-999.0,54,-99.99,,,0.00,Acu-Link.com,2013-08-15 19:22:00,
2013-08-15 15:37:00,71.2,54.2,30.03,WSW,247,2.2,-999.0,55,-99.99,,,0.00,Acu-Link.com,2013-08-15 19:37:00,
2013-08-15 15:52:00,71.4,54.9,30.03,West,270,2.2,-999.0,56,-99.99,,,0.00,Acu-Link.com,2013-08-15 19:52:00,
2013-08-15 16:08:00,73.9,55.7,30.03,East,90,2.2,-999.0,53,-99.99,,,0.00,Acu-Link.com,2013-08-15 20:08:00,
2013-08-15 16:38:00,71.4,54.4,30.02,North,0,2.2,-999.0,55,-99.99,,,0.00,Acu-Link.com,2013-08-15 20:38:00,
2013-08-15 17:09:00,69.6,53.7,30.01,West,270,2.2,-999.0,57,-99.99,,,0.00,Acu-Link.com,2013-08-15 21:09:00,
2013-08-15 17:24:00,69.3,53.4,30.02,SW,225,1.1,-999.0,57,-99.99,,,0.00,Acu-Link.com,2013-08-15 21:24:00,
2013-08-15 17:39:00,68.9,53.5,30.01,ESE,112,0.0,-999.0,58,-99.99,,,0.00,Acu-Link.com,2013-08-15 21:39:00,
2013-08-15 17:55:00,68.4,53.5,30.01,ESE,112,2.2,-999.0,59,-99.99,,,0.00,Acu-Link.com,2013-08-15 21:55:00,
2013-08-15 18:10:00,67.6,54.1,30.02,NW,315,0.0,-999.0,62,-99.99,,,0.00,Acu-Link.com,2013-08-15 22:10:00,
2013-08-15 18:25:00,66.9,53.4,30.01,South,180,2.2,-999.0,62,-99.99,,,0.00,Acu-Link.com,2013-08-15 22:25:00,
2013-08-15 18:41:00,66.2,53.7,30.02,ENE,67,0.0,-999.0,64,-99.99,,,0.00,Acu-Link.com,2013-08-15 22:41:00,
2013-08-15 18:56:00,65.3,54.5,30.03,West,270,1.7,-999.0,68,-99.99,,,0.00,Acu-Link.com,2013-08-15 22:56:00,
2013-08-15 19:11:00,64.4,54.0,30.03,NNW,337,0.0,-999.0,69,-99.99,,,0.00,Acu-Link.com,2013-08-15 23:11:00,
2013-08-15 19:26:00,62.4,54.0,30.03,South,180,1.7,-999.0,74,-99.99,,,0.00,Acu-Link.com,2013-08-15 23:26:00,
2013-08-15 19:42:00,61.7,54.4,30.04,South,180,0.0,-999.0,77,-99.99,,,0.00,Acu-Link.com,2013-08-15 23:42:00,
2013-08-15 19:57:00,61.0,54.4,30.04,SSW,202,0.0,-999.0,79,-99.99,,,0.00,Acu-Link.com,2013-08-15 23:57:00,
2013-08-15 20:12:00,59.9,54.1,30.05,South,180,0.0,-999.0,81,-99.99,,,0.00,Acu-Link.com,2013-08-16 00:12:00,
2013-08-15 20:28:00,59.0,53.8,30.06,ESE,112,0.0,-999.0,83,-99.99,,,0.00,Acu-Link.com,2013-08-16 00:28:00,
2013-08-15 20:43:00,58.3,53.5,30.07,ESE,112,0.0,-999.0,84,-99.99,,,0.00,Acu-Link.com,2013-08-16 00:43:00,
2013-08-15 20:58:00,57.7,53.2,30.07,SE,135,0.0,-999.0,85,-99.99,,,0.00,Acu-Link.com,2013-08-16 00:58:00,
2013-08-15 21:14:00,57.2,53.4,30.08,SSE,157,0.0,-999.0,87,-99.99,,,0.00,Acu-Link.com,2013-08-16 01:14:00,
2013-08-15 21:29:00,56.8,53.3,30.08,ESE,112,0.0,-999.0,88,-99.99,,,0.00,Acu-Link.com,2013-08-16 01:29:00,
2013-08-15 21:44:00,56.3,53.1,30.09,SSE,157,0.0,-999.0,89,-99.99,,,0.00,Acu-Link.com,2013-08-16 01:44:00,
2013-08-15 21:59:00,55.8,53.2,30.09,South,180,0.0,-999.0,91,-99.99,,,0.00,Acu-Link.com,2013-08-16 01:59:00,
2013-08-15 22:15:00,55.4,53.1,30.09,ESE,112,0.0,-999.0,92,-99.99,,,0.00,Acu-Link.com,2013-08-16 02:15:00,
2013-08-15 22:30:00,54.9,52.6,30.09,ENE,67,0.0,-999.0,92,-99.99,,,0.00,Acu-Link.com,2013-08-16 02:30:00,
2013-08-15 22:45:00,54.3,52.6,30.10,NE,45,0.0,-999.0,94,-99.99,,,0.00,Acu-Link.com,2013-08-16 02:45:00,
2013-08-15 23:00:00,54.0,52.3,30.10,SSW,202,0.0,-999.0,94,-99.99,,,0.00,Acu-Link.com,2013-08-16 03:00:00,
2013-08-15 23:16:00,53.8,52.4,30.11,ESE,112,0.0,-999.0,95,-99.99,,,0.00,Acu-Link.com,2013-08-16 03:16:00,
2013-08-15 23:31:00,53.6,52.5,30.11,SE,135,0.0,-999.0,96,-99.99,,,0.00,Acu-Link.com,2013-08-16 03:31:00,
2013-08-15 23:46:00,52.7,51.6,30.11,WNW,292,0.0,-999.0,96,-99.99,,,0.00,Acu-Link.com,2013-08-16 03:46:00,